sensor_id;sensor_type;location;lat;lon;timestamp;P1;durP1;ratioP1;P2;durP2;ratioP2
72087;SDS011;59961;50.232;8.616;2024-01-30T00:02:04;12.55;;;5.93;;
72087;SDS011;59961;50.232;8.616;2024-01-30T00:04:29;15.85;;;6.70;;
72087;SDS011;59961;50.232;8.616;2024-01-30T00:06:54;11.55;;;6.15;;
72087;SDS011;59961;50.232;8.616;2024-01-30T00:09:19;13.30;;;6.80;;
72087;SDS011;59961;50.232;8.616;2024-01-30T00:11:44;12.57;;;6.60;;
72087;SDS011;59961;50.232;8.616;2024-01-30T00:14:10;12.90;;;6.57;;
72087;SDS011;59961;50.232;8.616;2024-01-30T00:16:35;14.57;;;6.60;;
72087;SDS011;59961;50.232;8.616;2024-01-30T00:19:00;16.30;;;7.43;;
72087;SDS011;59961;50.232;8.616;2024-01-30T00:21:27;15.55;;;7.10;;
72087;SDS011;59961;50.232;8.616;2024-01-30T00:23:52;15.73;;;7.30;;
72087;SDS011;59961;50.232;8.616;2024-01-30T00:26:17;13.65;;;6.60;;
72087;SDS011;59961;50.232;8.616;2024-01-30T00:28:42;14.03;;;7.17;;
72087;SDS011;59961;50.232;8.616;2024-01-30T00:31:07;18.77;;;7.43;;
72087;SDS011;59961;50.232;8.616;2024-01-30T00:33:33;12.90;;;5.93;;
72087;SDS011;59961;50.232;8.616;2024-01-30T00:35:58;12.50;;;6.10;;
72087;SDS011;59961;50.232;8.616;2024-01-30T00:38:23;14.23;;;6.67;;
72087;SDS011;59961;50.232;8.616;2024-01-30T00:40:48;15.50;;;7.23;;
72087;SDS011;59961;50.232;8.616;2024-01-30T00:43:14;17.02;;;7.63;;
72087;SDS011;59961;50.232;8.616;2024-01-30T00:45:39;16.30;;;8.03;;
72087;SDS011;59961;50.232;8.616;2024-01-30T00:48:04;16.70;;;7.10;;
72087;SDS011;59961;50.232;8.616;2024-01-30T00:50:29;18.53;;;7.97;;
72087;SDS011;59961;50.232;8.616;2024-01-30T00:52:54;16.10;;;7.33;;
72087;SDS011;59961;50.232;8.616;2024-01-30T00:55:20;14.73;;;7.10;;
72087;SDS011;59961;50.232;8.616;2024-01-30T00:57:45;15.40;;;7.73;;
72087;SDS011;59961;50.232;8.616;2024-01-30T01:00:10;16.97;;;7.93;;
72087;SDS011;59961;50.232;8.616;2024-01-30T01:02:35;15.70;;;6.57;;
72087;SDS011;59961;50.232;8.616;2024-01-30T01:05:01;14.00;;;7.17;;
72087;SDS011;59961;50.232;8.616;2024-01-30T01:07:26;15.10;;;7.17;;
72087;SDS011;59961;50.232;8.616;2024-01-30T01:09:51;19.27;;;7.75;;
72087;SDS011;59961;50.232;8.616;2024-01-30T01:12:16;18.73;;;7.77;;
72087;SDS011;59961;50.232;8.616;2024-01-30T01:14:41;16.50;;;7.63;;
72087;SDS011;59961;50.232;8.616;2024-01-30T01:17:07;15.45;;;7.20;;
72087;SDS011;59961;50.232;8.616;2024-01-30T01:19:32;18.33;;;7.37;;
72087;SDS011;59961;50.232;8.616;2024-01-30T01:21:57;16.13;;;6.87;;
72087;SDS011;59961;50.232;8.616;2024-01-30T01:24:22;19.27;;;8.00;;
72087;SDS011;59961;50.232;8.616;2024-01-30T01:26:47;12.95;;;6.68;;
72087;SDS011;59961;50.232;8.616;2024-01-30T01:29:12;17.05;;;7.38;;
72087;SDS011;59961;50.232;8.616;2024-01-30T01:31:38;14.23;;;7.27;;
72087;SDS011;59961;50.232;8.616;2024-01-30T01:34:08;14.90;;;7.03;;
72087;SDS011;59961;50.232;8.616;2024-01-30T01:36:33;14.17;;;7.53;;
72087;SDS011;59961;50.232;8.616;2024-01-30T01:38:58;15.10;;;7.93;;
72087;SDS011;59961;50.232;8.616;2024-01-30T01:41:23;14.63;;;7.45;;
72087;SDS011;59961;50.232;8.616;2024-01-30T01:43:49;16.00;;;8.05;;
72087;SDS011;59961;50.232;8.616;2024-01-30T01:46:14;15.88;;;7.55;;
72087;SDS011;59961;50.232;8.616;2024-01-30T01:48:39;15.13;;;7.90;;
72087;SDS011;59961;50.232;8.616;2024-01-30T01:51:05;16.33;;;7.80;;
72087;SDS011;59961;50.232;8.616;2024-01-30T01:53:30;14.00;;;6.77;;
72087;SDS011;59961;50.232;8.616;2024-01-30T01:55:55;16.83;;;7.43;;
72087;SDS011;59961;50.232;8.616;2024-01-30T01:58:21;14.40;;;7.63;;
72087;SDS011;59961;50.232;8.616;2024-01-30T02:00:48;14.73;;;7.47;;
72087;SDS011;59961;50.232;8.616;2024-01-30T02:03:13;16.50;;;7.47;;
72087;SDS011;59961;50.232;8.616;2024-01-30T02:05:39;17.20;;;8.55;;
72087;SDS011;59961;50.232;8.616;2024-01-30T02:08:04;15.82;;;8.48;;
72087;SDS011;59961;50.232;8.616;2024-01-30T02:10:30;12.10;;;6.47;;
72087;SDS011;59961;50.232;8.616;2024-01-30T02:12:55;18.57;;;8.07;;
72087;SDS011;59961;50.232;8.616;2024-01-30T02:15:20;15.75;;;7.63;;
72087;SDS011;59961;50.232;8.616;2024-01-30T02:17:45;16.07;;;7.30;;
72087;SDS011;59961;50.232;8.616;2024-01-30T02:20:10;14.32;;;7.32;;
72087;SDS011;59961;50.232;8.616;2024-01-30T02:22:36;13.57;;;7.17;;
72087;SDS011;59961;50.232;8.616;2024-01-30T02:25:02;15.23;;;7.22;;
72087;SDS011;59961;50.232;8.616;2024-01-30T02:27:27;14.30;;;7.10;;
72087;SDS011;59961;50.232;8.616;2024-01-30T02:29:52;14.97;;;7.30;;
72087;SDS011;59961;50.232;8.616;2024-01-30T02:32:18;17.23;;;7.57;;
72087;SDS011;59961;50.232;8.616;2024-01-30T02:34:43;14.95;;;7.65;;
72087;SDS011;59961;50.232;8.616;2024-01-30T02:37:08;14.50;;;7.47;;
72087;SDS011;59961;50.232;8.616;2024-01-30T02:39:33;14.45;;;7.95;;
72087;SDS011;59961;50.232;8.616;2024-01-30T02:41:58;14.57;;;7.80;;
72087;SDS011;59961;50.232;8.616;2024-01-30T02:44:23;16.20;;;8.23;;
72087;SDS011;59961;50.232;8.616;2024-01-30T02:46:48;16.83;;;8.15;;
72087;SDS011;59961;50.232;8.616;2024-01-30T02:49:13;13.47;;;6.97;;
72087;SDS011;59961;50.232;8.616;2024-01-30T02:51:39;15.13;;;7.93;;
72087;SDS011;59961;50.232;8.616;2024-01-30T02:54:04;16.77;;;8.27;;
72087;SDS011;59961;50.232;8.616;2024-01-30T02:56:29;13.03;;;7.10;;
72087;SDS011;59961;50.232;8.616;2024-01-30T02:58:54;18.10;;;7.53;;
72087;SDS011;59961;50.232;8.616;2024-01-30T03:01:19;14.10;;;7.53;;
72087;SDS011;59961;50.232;8.616;2024-01-30T03:03:44;13.47;;;7.00;;
72087;SDS011;59961;50.232;8.616;2024-01-30T03:06:09;15.03;;;7.40;;
72087;SDS011;59961;50.232;8.616;2024-01-30T03:08:35;16.63;;;8.10;;
72087;SDS011;59961;50.232;8.616;2024-01-30T03:11:00;13.43;;;6.97;;
72087;SDS011;59961;50.232;8.616;2024-01-30T03:13:25;13.23;;;7.43;;
72087;SDS011;59961;50.232;8.616;2024-01-30T03:15:50;16.60;;;7.53;;
72087;SDS011;59961;50.232;8.616;2024-01-30T03:18:15;15.25;;;6.97;;
72087;SDS011;59961;50.232;8.616;2024-01-30T03:20:41;13.27;;;7.47;;
72087;SDS011;59961;50.232;8.616;2024-01-30T03:23:06;13.32;;;6.53;;
72087;SDS011;59961;50.232;8.616;2024-01-30T03:25:31;16.57;;;7.40;;
72087;SDS011;59961;50.232;8.616;2024-01-30T03:27:56;15.88;;;7.70;;
72087;SDS011;59961;50.232;8.616;2024-01-30T03:30:21;15.05;;;7.95;;
72087;SDS011;59961;50.232;8.616;2024-01-30T03:32:47;15.17;;;8.17;;
72087;SDS011;59961;50.232;8.616;2024-01-30T03:35:12;15.77;;;7.47;;
72087;SDS011;59961;50.232;8.616;2024-01-30T03:37:37;15.17;;;7.40;;
72087;SDS011;59961;50.232;8.616;2024-01-30T03:40:02;12.47;;;7.03;;
72087;SDS011;59961;50.232;8.616;2024-01-30T03:42:28;14.43;;;7.55;;
72087;SDS011;59961;50.232;8.616;2024-01-30T03:44:53;15.82;;;7.18;;
72087;SDS011;59961;50.232;8.616;2024-01-30T03:47:19;13.25;;;8.05;;
72087;SDS011;59961;50.232;8.616;2024-01-30T03:49:45;13.57;;;7.07;;
72087;SDS011;59961;50.232;8.616;2024-01-30T03:52:10;17.10;;;7.50;;
72087;SDS011;59961;50.232;8.616;2024-01-30T03:54:35;14.33;;;7.30;;
72087;SDS011;59961;50.232;8.616;2024-01-30T03:57:00;15.35;;;7.88;;
72087;SDS011;59961;50.232;8.616;2024-01-30T03:59:25;16.37;;;7.67;;
72087;SDS011;59961;50.232;8.616;2024-01-30T04:01:51;15.32;;;7.15;;
72087;SDS011;59961;50.232;8.616;2024-01-30T04:04:17;14.10;;;7.27;;
72087;SDS011;59961;50.232;8.616;2024-01-30T04:06:42;15.33;;;7.47;;
72087;SDS011;59961;50.232;8.616;2024-01-30T04:09:07;14.25;;;7.55;;
72087;SDS011;59961;50.232;8.616;2024-01-30T04:11:32;14.75;;;8.02;;
72087;SDS011;59961;50.232;8.616;2024-01-30T04:13:58;14.67;;;7.90;;
72087;SDS011;59961;50.232;8.616;2024-01-30T04:16:23;13.43;;;7.60;;
72087;SDS011;59961;50.232;8.616;2024-01-30T04:18:48;15.85;;;7.55;;
72087;SDS011;59961;50.232;8.616;2024-01-30T04:21:13;14.20;;;7.00;;
72087;SDS011;59961;50.232;8.616;2024-01-30T04:23:40;14.82;;;7.38;;
72087;SDS011;59961;50.232;8.616;2024-01-30T04:26:05;14.23;;;7.23;;
72087;SDS011;59961;50.232;8.616;2024-01-30T04:28:30;12.68;;;7.30;;
72087;SDS011;59961;50.232;8.616;2024-01-30T04:30:55;13.30;;;7.20;;
72087;SDS011;59961;50.232;8.616;2024-01-30T04:33:20;15.93;;;7.20;;
72087;SDS011;59961;50.232;8.616;2024-01-30T04:35:46;18.80;;;8.07;;
72087;SDS011;59961;50.232;8.616;2024-01-30T04:38:11;16.33;;;7.18;;
72087;SDS011;59961;50.232;8.616;2024-01-30T04:40:36;14.37;;;7.73;;
72087;SDS011;59961;50.232;8.616;2024-01-30T04:43:01;16.97;;;7.90;;
72087;SDS011;59961;50.232;8.616;2024-01-30T04:45:26;16.97;;;7.90;;
72087;SDS011;59961;50.232;8.616;2024-01-30T04:47:51;16.15;;;8.32;;
72087;SDS011;59961;50.232;8.616;2024-01-30T04:50:16;15.30;;;8.15;;
72087;SDS011;59961;50.232;8.616;2024-01-30T04:52:42;14.93;;;7.70;;
72087;SDS011;59961;50.232;8.616;2024-01-30T04:55:07;14.20;;;7.38;;
72087;SDS011;59961;50.232;8.616;2024-01-30T04:57:32;17.60;;;8.10;;
72087;SDS011;59961;50.232;8.616;2024-01-30T04:59:58;17.15;;;8.32;;
72087;SDS011;59961;50.232;8.616;2024-01-30T05:02:23;13.73;;;7.27;;
72087;SDS011;59961;50.232;8.616;2024-01-30T05:04:48;14.27;;;7.35;;
72087;SDS011;59961;50.232;8.616;2024-01-30T05:07:14;14.98;;;8.13;;
72087;SDS011;59961;50.232;8.616;2024-01-30T05:09:39;15.00;;;8.32;;
72087;SDS011;59961;50.232;8.616;2024-01-30T05:12:04;16.92;;;7.85;;
72087;SDS011;59961;50.232;8.616;2024-01-30T05:14:29;17.53;;;8.03;;
72087;SDS011;59961;50.232;8.616;2024-01-30T05:16:54;18.45;;;9.18;;
72087;SDS011;59961;50.232;8.616;2024-01-30T05:19:19;17.98;;;7.90;;
72087;SDS011;59961;50.232;8.616;2024-01-30T05:21:46;16.53;;;7.87;;
72087;SDS011;59961;50.232;8.616;2024-01-30T05:24:11;18.98;;;8.18;;
72087;SDS011;59961;50.232;8.616;2024-01-30T05:26:36;16.27;;;7.93;;
72087;SDS011;59961;50.232;8.616;2024-01-30T05:29:02;17.00;;;8.63;;
72087;SDS011;59961;50.232;8.616;2024-01-30T05:31:27;15.60;;;8.98;;
72087;SDS011;59961;50.232;8.616;2024-01-30T05:33:52;15.13;;;7.70;;
72087;SDS011;59961;50.232;8.616;2024-01-30T05:36:18;15.63;;;8.20;;
72087;SDS011;59961;50.232;8.616;2024-01-30T05:38:43;17.77;;;8.82;;
72087;SDS011;59961;50.232;8.616;2024-01-30T05:41:08;14.63;;;7.87;;
72087;SDS011;59961;50.232;8.616;2024-01-30T05:43:34;15.23;;;8.17;;
72087;SDS011;59961;50.232;8.616;2024-01-30T05:45:59;16.05;;;8.23;;
72087;SDS011;59961;50.232;8.616;2024-01-30T05:48:24;15.10;;;8.23;;
72087;SDS011;59961;50.232;8.616;2024-01-30T05:50:49;17.80;;;8.10;;
72087;SDS011;59961;50.232;8.616;2024-01-30T05:53:14;15.02;;;8.20;;
72087;SDS011;59961;50.232;8.616;2024-01-30T05:55:39;18.50;;;8.48;;
72087;SDS011;59961;50.232;8.616;2024-01-30T05:58:04;18.87;;;8.60;;
72087;SDS011;59961;50.232;8.616;2024-01-30T06:00:30;17.90;;;8.32;;
72087;SDS011;59961;50.232;8.616;2024-01-30T06:02:55;17.93;;;8.67;;
72087;SDS011;59961;50.232;8.616;2024-01-30T06:05:20;17.37;;;8.83;;
72087;SDS011;59961;50.232;8.616;2024-01-30T06:07:45;13.33;;;7.43;;
72087;SDS011;59961;50.232;8.616;2024-01-30T06:10:10;16.65;;;8.07;;
72087;SDS011;59961;50.232;8.616;2024-01-30T06:12:35;14.52;;;8.55;;
72087;SDS011;59961;50.232;8.616;2024-01-30T06:15:01;15.10;;;7.63;;
72087;SDS011;59961;50.232;8.616;2024-01-30T06:17:26;18.20;;;8.87;;
72087;SDS011;59961;50.232;8.616;2024-01-30T06:19:52;16.60;;;8.80;;
72087;SDS011;59961;50.232;8.616;2024-01-30T06:22:17;15.68;;;8.35;;
72087;SDS011;59961;50.232;8.616;2024-01-30T06:24:42;15.00;;;8.70;;
72087;SDS011;59961;50.232;8.616;2024-01-30T06:27:09;20.20;;;9.00;;
72087;SDS011;59961;50.232;8.616;2024-01-30T06:29:35;15.37;;;8.23;;
72087;SDS011;59961;50.232;8.616;2024-01-30T06:32:00;14.60;;;8.30;;
72087;SDS011;59961;50.232;8.616;2024-01-30T06:34:25;18.97;;;8.67;;
72087;SDS011;59961;50.232;8.616;2024-01-30T06:36:51;17.27;;;8.75;;
72087;SDS011;59961;50.232;8.616;2024-01-30T06:39:16;22.33;;;9.43;;
72087;SDS011;59961;50.232;8.616;2024-01-30T06:41:42;17.65;;;8.85;;
72087;SDS011;59961;50.232;8.616;2024-01-30T06:44:08;16.10;;;8.47;;
72087;SDS011;59961;50.232;8.616;2024-01-30T06:46:33;23.35;;;10.15;;
72087;SDS011;59961;50.232;8.616;2024-01-30T06:48:59;18.00;;;9.87;;
72087;SDS011;59961;50.232;8.616;2024-01-30T06:51:24;18.93;;;9.50;;
72087;SDS011;59961;50.232;8.616;2024-01-30T06:53:51;18.42;;;9.68;;
72087;SDS011;59961;50.232;8.616;2024-01-30T06:56:16;20.87;;;9.97;;
72087;SDS011;59961;50.232;8.616;2024-01-30T06:58:45;18.63;;;8.82;;
72087;SDS011;59961;50.232;8.616;2024-01-30T07:01:11;16.90;;;9.53;;
72087;SDS011;59961;50.232;8.616;2024-01-30T07:03:36;19.20;;;9.37;;
72087;SDS011;59961;50.232;8.616;2024-01-30T07:06:02;17.60;;;8.40;;
72087;SDS011;59961;50.232;8.616;2024-01-30T07:08:27;18.97;;;9.70;;
72087;SDS011;59961;50.232;8.616;2024-01-30T07:10:52;16.30;;;8.83;;
72087;SDS011;59961;50.232;8.616;2024-01-30T07:13:20;22.58;;;9.80;;
72087;SDS011;59961;50.232;8.616;2024-01-30T07:15:45;18.33;;;9.57;;
72087;SDS011;59961;50.232;8.616;2024-01-30T07:18:11;18.17;;;9.75;;
72087;SDS011;59961;50.232;8.616;2024-01-30T07:20:38;18.95;;;10.60;;
72087;SDS011;59961;50.232;8.616;2024-01-30T07:23:07;21.33;;;9.55;;
72087;SDS011;59961;50.232;8.616;2024-01-30T07:25:32;18.77;;;9.70;;
72087;SDS011;59961;50.232;8.616;2024-01-30T07:28:01;19.55;;;10.32;;
72087;SDS011;59961;50.232;8.616;2024-01-30T07:30:26;19.80;;;9.27;;
72087;SDS011;59961;50.232;8.616;2024-01-30T07:32:52;21.30;;;10.13;;
72087;SDS011;59961;50.232;8.616;2024-01-30T07:35:17;19.13;;;10.00;;
72087;SDS011;59961;50.232;8.616;2024-01-30T07:37:42;18.88;;;9.93;;
72087;SDS011;59961;50.232;8.616;2024-01-30T07:40:07;18.30;;;10.00;;
72087;SDS011;59961;50.232;8.616;2024-01-30T07:42:32;22.02;;;10.57;;
72087;SDS011;59961;50.232;8.616;2024-01-30T07:44:58;22.07;;;10.83;;
72087;SDS011;59961;50.232;8.616;2024-01-30T07:47:23;21.17;;;10.40;;
72087;SDS011;59961;50.232;8.616;2024-01-30T07:49:48;21.38;;;10.55;;
72087;SDS011;59961;50.232;8.616;2024-01-30T07:52:13;21.60;;;10.77;;
72087;SDS011;59961;50.232;8.616;2024-01-30T07:54:39;22.43;;;11.20;;
72087;SDS011;59961;50.232;8.616;2024-01-30T07:57:04;19.10;;;10.27;;
72087;SDS011;59961;50.232;8.616;2024-01-30T07:59:29;20.63;;;10.70;;
72087;SDS011;59961;50.232;8.616;2024-01-30T08:01:55;23.60;;;10.77;;
72087;SDS011;59961;50.232;8.616;2024-01-30T08:04:20;23.03;;;11.00;;
72087;SDS011;59961;50.232;8.616;2024-01-30T08:06:46;21.47;;;11.60;;
72087;SDS011;59961;50.232;8.616;2024-01-30T08:09:11;20.50;;;10.50;;
72087;SDS011;59961;50.232;8.616;2024-01-30T08:11:36;18.90;;;11.13;;
72087;SDS011;59961;50.232;8.616;2024-01-30T08:14:02;24.38;;;12.07;;
72087;SDS011;59961;50.232;8.616;2024-01-30T08:16:27;21.23;;;11.10;;
72087;SDS011;59961;50.232;8.616;2024-01-30T08:18:52;20.63;;;11.57;;
72087;SDS011;59961;50.232;8.616;2024-01-30T08:21:20;21.77;;;11.00;;
72087;SDS011;59961;50.232;8.616;2024-01-30T08:23:45;21.55;;;11.85;;
72087;SDS011;59961;50.232;8.616;2024-01-30T08:26:11;23.97;;;12.50;;
72087;SDS011;59961;50.232;8.616;2024-01-30T08:28:36;24.37;;;12.63;;
72087;SDS011;59961;50.232;8.616;2024-01-30T08:31:01;21.58;;;12.05;;
72087;SDS011;59961;50.232;8.616;2024-01-30T08:33:26;21.33;;;12.03;;
72087;SDS011;59961;50.232;8.616;2024-01-30T08:35:51;21.27;;;12.40;;
72087;SDS011;59961;50.232;8.616;2024-01-30T08:38:16;21.57;;;11.93;;
72087;SDS011;59961;50.232;8.616;2024-01-30T08:40:41;20.80;;;12.00;;
72087;SDS011;59961;50.232;8.616;2024-01-30T08:43:06;21.52;;;12.20;;
72087;SDS011;59961;50.232;8.616;2024-01-30T08:45:33;22.88;;;12.43;;
72087;SDS011;59961;50.232;8.616;2024-01-30T08:47:58;20.17;;;11.97;;
72087;SDS011;59961;50.232;8.616;2024-01-30T08:50:23;24.43;;;12.20;;
72087;SDS011;59961;50.232;8.616;2024-01-30T08:52:50;23.45;;;12.38;;
72087;SDS011;59961;50.232;8.616;2024-01-30T08:55:15;24.03;;;12.37;;
72087;SDS011;59961;50.232;8.616;2024-01-30T08:57:40;22.60;;;12.53;;
72087;SDS011;59961;50.232;8.616;2024-01-30T09:00:05;20.80;;;12.27;;
72087;SDS011;59961;50.232;8.616;2024-01-30T09:02:31;22.13;;;12.10;;
72087;SDS011;59961;50.232;8.616;2024-01-30T09:04:57;19.07;;;12.00;;
72087;SDS011;59961;50.232;8.616;2024-01-30T09:07:22;21.57;;;11.93;;
72087;SDS011;59961;50.232;8.616;2024-01-30T09:09:47;28.90;;;11.87;;
72087;SDS011;59961;50.232;8.616;2024-01-30T09:12:12;21.13;;;12.52;;
72087;SDS011;59961;50.232;8.616;2024-01-30T09:14:38;21.47;;;12.30;;
72087;SDS011;59961;50.232;8.616;2024-01-30T09:17:04;21.25;;;12.23;;
72087;SDS011;59961;50.232;8.616;2024-01-30T09:19:29;19.20;;;11.23;;
72087;SDS011;59961;50.232;8.616;2024-01-30T09:21:55;22.97;;;11.83;;
72087;SDS011;59961;50.232;8.616;2024-01-30T09:24:20;23.83;;;12.20;;
72087;SDS011;59961;50.232;8.616;2024-01-30T09:26:45;21.05;;;12.70;;
72087;SDS011;59961;50.232;8.616;2024-01-30T09:29:10;19.50;;;12.30;;
72087;SDS011;59961;50.232;8.616;2024-01-30T09:31:36;22.87;;;12.57;;
72087;SDS011;59961;50.232;8.616;2024-01-30T09:34:01;19.83;;;12.05;;
72087;SDS011;59961;50.232;8.616;2024-01-30T09:36:26;21.87;;;11.93;;
72087;SDS011;59961;50.232;8.616;2024-01-30T09:38:52;22.63;;;12.43;;
72087;SDS011;59961;50.232;8.616;2024-01-30T09:41:17;19.63;;;11.67;;
72087;SDS011;59961;50.232;8.616;2024-01-30T09:43:45;20.23;;;11.73;;
72087;SDS011;59961;50.232;8.616;2024-01-30T09:46:13;21.17;;;12.00;;
72087;SDS011;59961;50.232;8.616;2024-01-30T09:48:41;23.35;;;12.10;;
72087;SDS011;59961;50.232;8.616;2024-01-30T09:51:08;22.80;;;12.43;;
72087;SDS011;59961;50.232;8.616;2024-01-30T09:53:34;19.70;;;11.73;;
72087;SDS011;59961;50.232;8.616;2024-01-30T09:55:59;20.65;;;12.35;;
72087;SDS011;59961;50.232;8.616;2024-01-30T09:58:26;19.40;;;12.13;;
72087;SDS011;59961;50.232;8.616;2024-01-30T10:00:51;21.40;;;12.20;;
72087;SDS011;59961;50.232;8.616;2024-01-30T10:03:18;23.02;;;12.25;;
72087;SDS011;59961;50.232;8.616;2024-01-30T10:05:44;19.08;;;11.85;;
72087;SDS011;59961;50.232;8.616;2024-01-30T10:08:11;21.17;;;11.30;;
72087;SDS011;59961;50.232;8.616;2024-01-30T10:10:36;19.97;;;11.37;;
72087;SDS011;59961;50.232;8.616;2024-01-30T10:13:02;21.20;;;11.67;;
72087;SDS011;59961;50.232;8.616;2024-01-30T10:15:27;20.60;;;11.73;;
72087;SDS011;59961;50.232;8.616;2024-01-30T10:17:53;19.80;;;12.27;;
72087;SDS011;59961;50.232;8.616;2024-01-30T10:20:18;20.50;;;11.02;;
72087;SDS011;59961;50.232;8.616;2024-01-30T10:22:44;20.58;;;12.38;;
72087;SDS011;59961;50.232;8.616;2024-01-30T10:25:10;21.57;;;12.10;;
72087;SDS011;59961;50.232;8.616;2024-01-30T10:27:36;36.00;;;25.55;;
72087;SDS011;59961;50.232;8.616;2024-01-30T10:30:01;21.00;;;11.93;;
72087;SDS011;59961;50.232;8.616;2024-01-30T10:32:26;20.30;;;12.53;;
72087;SDS011;59961;50.232;8.616;2024-01-30T10:34:51;23.70;;;13.17;;
72087;SDS011;59961;50.232;8.616;2024-01-30T10:37:17;23.65;;;12.40;;
72087;SDS011;59961;50.232;8.616;2024-01-30T10:39:43;20.52;;;12.43;;
72087;SDS011;59961;50.232;8.616;2024-01-30T10:42:18;21.60;;;12.43;;
72087;SDS011;59961;50.232;8.616;2024-01-30T10:44:56;20.30;;;12.15;;
72087;SDS011;59961;50.232;8.616;2024-01-30T10:47:26;20.13;;;12.15;;
72087;SDS011;59961;50.232;8.616;2024-01-30T10:49:52;20.75;;;12.05;;
72087;SDS011;59961;50.232;8.616;2024-01-30T10:52:17;23.07;;;12.70;;
72087;SDS011;59961;50.232;8.616;2024-01-30T10:54:43;24.70;;;11.53;;
72087;SDS011;59961;50.232;8.616;2024-01-30T10:57:09;22.95;;;11.73;;
72087;SDS011;59961;50.232;8.616;2024-01-30T10:59:35;18.75;;;11.38;;
72087;SDS011;59961;50.232;8.616;2024-01-30T11:02:00;18.53;;;10.90;;
72087;SDS011;59961;50.232;8.616;2024-01-30T11:04:35;20.35;;;11.80;;
72087;SDS011;59961;50.232;8.616;2024-01-30T11:07:00;17.88;;;10.82;;
72087;SDS011;59961;50.232;8.616;2024-01-30T11:09:28;19.60;;;11.87;;
72087;SDS011;59961;50.232;8.616;2024-01-30T11:11:57;20.17;;;10.82;;
72087;SDS011;59961;50.232;8.616;2024-01-30T11:14:26;19.15;;;10.65;;
72087;SDS011;59961;50.232;8.616;2024-01-30T11:16:51;16.43;;;10.30;;
72087;SDS011;59961;50.232;8.616;2024-01-30T11:19:23;19.63;;;10.97;;
72087;SDS011;59961;50.232;8.616;2024-01-30T11:21:50;20.15;;;11.70;;
72087;SDS011;59961;50.232;8.616;2024-01-30T11:24:18;20.42;;;11.73;;
72087;SDS011;59961;50.232;8.616;2024-01-30T11:26:44;23.47;;;12.60;;
72087;SDS011;59961;50.232;8.616;2024-01-30T11:29:09;20.73;;;11.60;;
72087;SDS011;59961;50.232;8.616;2024-01-30T11:31:34;19.98;;;11.82;;
72087;SDS011;59961;50.232;8.616;2024-01-30T11:33:59;25.60;;;11.67;;
72087;SDS011;59961;50.232;8.616;2024-01-30T11:36:25;20.63;;;12.13;;
72087;SDS011;59961;50.232;8.616;2024-01-30T11:38:51;21.85;;;11.85;;
72087;SDS011;59961;50.232;8.616;2024-01-30T11:41:17;19.73;;;11.10;;
72087;SDS011;59961;50.232;8.616;2024-01-30T11:43:42;18.33;;;10.57;;
72087;SDS011;59961;50.232;8.616;2024-01-30T11:46:08;21.67;;;11.83;;
72087;SDS011;59961;50.232;8.616;2024-01-30T11:48:34;21.00;;;10.45;;
72087;SDS011;59961;50.232;8.616;2024-01-30T11:51:00;21.33;;;11.73;;
72087;SDS011;59961;50.232;8.616;2024-01-30T11:53:25;19.50;;;11.27;;
72087;SDS011;59961;50.232;8.616;2024-01-30T11:55:50;19.53;;;11.77;;
72087;SDS011;59961;50.232;8.616;2024-01-30T11:58:15;22.57;;;11.80;;
72087;SDS011;59961;50.232;8.616;2024-01-30T12:00:41;18.50;;;11.20;;
72087;SDS011;59961;50.232;8.616;2024-01-30T12:03:06;19.30;;;11.10;;
72087;SDS011;59961;50.232;8.616;2024-01-30T12:05:31;18.52;;;10.70;;
72087;SDS011;59961;50.232;8.616;2024-01-30T12:07:57;20.43;;;11.07;;
72087;SDS011;59961;50.232;8.616;2024-01-30T12:10:24;22.35;;;11.95;;
72087;SDS011;59961;50.232;8.616;2024-01-30T12:12:49;22.93;;;11.50;;
72087;SDS011;59961;50.232;8.616;2024-01-30T12:15:15;17.07;;;10.80;;
72087;SDS011;59961;50.232;8.616;2024-01-30T12:17:40;17.55;;;11.18;;
72087;SDS011;59961;50.232;8.616;2024-01-30T12:22:37;21.42;;;10.93;;
72087;SDS011;59961;50.232;8.616;2024-01-30T12:25:24;22.20;;;11.57;;
72087;SDS011;59961;50.232;8.616;2024-01-30T12:27:49;17.35;;;10.48;;
72087;SDS011;59961;50.232;8.616;2024-01-30T12:30:17;21.73;;;11.98;;
72087;SDS011;59961;50.232;8.616;2024-01-30T12:32:44;22.35;;;11.45;;
72087;SDS011;59961;50.232;8.616;2024-01-30T12:35:10;16.83;;;10.77;;
72087;SDS011;59961;50.232;8.616;2024-01-30T12:37:35;20.42;;;12.05;;
72087;SDS011;59961;50.232;8.616;2024-01-30T12:40:01;18.47;;;10.67;;
72087;SDS011;59961;50.232;8.616;2024-01-30T12:42:26;21.87;;;11.40;;
72087;SDS011;59961;50.232;8.616;2024-01-30T12:44:51;17.70;;;10.75;;
72087;SDS011;59961;50.232;8.616;2024-01-30T12:47:16;19.80;;;11.25;;
72087;SDS011;59961;50.232;8.616;2024-01-30T12:49:42;18.77;;;11.33;;
72087;SDS011;59961;50.232;8.616;2024-01-30T12:52:08;20.73;;;10.90;;
72087;SDS011;59961;50.232;8.616;2024-01-30T12:54:34;18.73;;;10.48;;
72087;SDS011;59961;50.232;8.616;2024-01-30T12:56:59;22.47;;;11.30;;
72087;SDS011;59961;50.232;8.616;2024-01-30T12:59:24;19.03;;;10.63;;
72087;SDS011;59961;50.232;8.616;2024-01-30T13:01:49;20.57;;;10.23;;
72087;SDS011;59961;50.232;8.616;2024-01-30T13:04:14;17.97;;;9.97;;
72087;SDS011;59961;50.232;8.616;2024-01-30T13:06:40;18.75;;;10.52;;
72087;SDS011;59961;50.232;8.616;2024-01-30T13:09:05;18.98;;;10.82;;
72087;SDS011;59961;50.232;8.616;2024-01-30T13:11:30;19.70;;;11.00;;
72087;SDS011;59961;50.232;8.616;2024-01-30T13:13:56;17.73;;;9.95;;
72087;SDS011;59961;50.232;8.616;2024-01-30T13:16:22;16.23;;;9.85;;
72087;SDS011;59961;50.232;8.616;2024-01-30T13:18:47;16.63;;;8.97;;
72087;SDS011;59961;50.232;8.616;2024-01-30T13:21:12;16.42;;;10.15;;
72087;SDS011;59961;50.232;8.616;2024-01-30T13:23:37;17.10;;;10.65;;
72087;SDS011;59961;50.232;8.616;2024-01-30T13:26:02;18.20;;;10.05;;
72087;SDS011;59961;50.232;8.616;2024-01-30T13:28:28;15.87;;;9.37;;
72087;SDS011;59961;50.232;8.616;2024-01-30T13:30:53;17.70;;;10.30;;
72087;SDS011;59961;50.232;8.616;2024-01-30T13:33:18;17.53;;;10.43;;
72087;SDS011;59961;50.232;8.616;2024-01-30T13:35:43;17.67;;;10.27;;
72087;SDS011;59961;50.232;8.616;2024-01-30T13:38:10;16.50;;;9.77;;
72087;SDS011;59961;50.232;8.616;2024-01-30T13:40:35;15.07;;;9.57;;
72087;SDS011;59961;50.232;8.616;2024-01-30T13:43:00;17.13;;;9.77;;
72087;SDS011;59961;50.232;8.616;2024-01-30T13:45:25;16.65;;;9.57;;
72087;SDS011;59961;50.232;8.616;2024-01-30T13:47:50;17.57;;;9.27;;
72087;SDS011;59961;50.232;8.616;2024-01-30T13:50:16;15.27;;;8.93;;
72087;SDS011;59961;50.232;8.616;2024-01-30T13:52:42;17.63;;;9.23;;
72087;SDS011;59961;50.232;8.616;2024-01-30T13:55:07;14.60;;;8.13;;
72087;SDS011;59961;50.232;8.616;2024-01-30T13:57:32;16.42;;;8.38;;
72087;SDS011;59961;50.232;8.616;2024-01-30T14:00:00;15.40;;;8.82;;
72087;SDS011;59961;50.232;8.616;2024-01-30T14:02:25;14.38;;;8.63;;
72087;SDS011;59961;50.232;8.616;2024-01-30T14:04:52;15.98;;;9.23;;
72087;SDS011;59961;50.232;8.616;2024-01-30T14:07:17;17.60;;;9.63;;
72087;SDS011;59961;50.232;8.616;2024-01-30T14:09:45;18.55;;;9.77;;
72087;SDS011;59961;50.232;8.616;2024-01-30T14:12:11;15.70;;;9.27;;
72087;SDS011;59961;50.232;8.616;2024-01-30T14:14:36;14.13;;;8.73;;
72087;SDS011;59961;50.232;8.616;2024-01-30T14:17:02;15.83;;;9.60;;
72087;SDS011;59961;50.232;8.616;2024-01-30T14:19:28;15.88;;;9.43;;
72087;SDS011;59961;50.232;8.616;2024-01-30T14:21:53;16.90;;;10.60;;